This is the latest recevied weather packets stored in our database for station/object KA1BMF-13. If no packets are shown the sender has not sent any weather packets the latest 10 day(s).
| Time | Temp. | Humidity | Pressure | Rain* | Wind** | Luminosity | Snow |
|---|---|---|---|---|---|---|---|
| 1777730731 | 11.11° C | 81% | 1011.3 hPa | 0 mm | - | 303 W/m² | - |
| 1777725333 | 10° C | 91% | 1011.4 hPa | 0 mm | - | 185 W/m² | - |
| 1777722919 | 8.89° C | 93% | 1010.9 hPa | 3.3 mm | - | 96 W/m² | - |
| 1777722318 | 8.89° C | 93% | 1011.1 hPa | 3.3 mm | - | 61 W/m² | - |
| 1777718719 | 8.89° C | 92% | 1011.7 hPa | 0 mm | - | 12 W/m² | - |
| 1777715120 | 8.89° C | 91% | 1011.2 hPa | 0 mm | - | 1 W/m² | - |
| 1777714521 | 8.89° C | 90% | 1011.2 hPa | 0.76 mm | - | 0 W/m² | - |
| 1777713920 | 8.89° C | 90% | 1011.2 hPa | 0.76 mm | - | 0 W/m² | - |
| 1777707323 | 8.89° C | 86% | 1011 hPa | 0 mm | - | 0 W/m² | - |
| 1777705518 | 8.89° C | 86% | 1011 hPa | 0 mm | - | 0 W/m² | - |
| 1777704318 | 9.44° C | 85% | 1011.1 hPa | 0 mm | - | 0 W/m² | - |
| 1777702519 | 9.44° C | 83% | 1011 hPa | 0.25 mm | - | 0 W/m² | - |
| 1777697137 | 10° C | 77% | 1011.6 hPa | 0 mm | - | 0 W/m² | - |
| 1777695341 | 10° C | 76% | 1011.6 hPa | 0 mm | - | 0 W/m² | - |
| 1777691759 | 10.56° C | 74% | 1011.7 hPa | 0 mm | - | 0 W/m² | - |
| 1777683918 | 11.67° C | 68% | 1011.6 hPa | 0 mm | - | 0 W/m² | - |
| 1777679139 | 13.33° C | 59% | 1010.4 hPa | 0 mm | - | 5 W/m² | - |
| 1777677917 | 13.89° C | 53% | 1010 hPa | 0 mm | - | 14 W/m² | - |
| 1777677318 | 13.89° C | 49% | 1009.8 hPa | 0 mm | - | 18 W/m² | - |
| 1777676120 | 15° C | 43% | 1009.6 hPa | 0 mm | - | 27 W/m² | - |
| 1777675518 | 15° C | 43% | 1009.6 hPa | 0 mm | - | 30 W/m² | - |
| 1777672519 | 15.56° C | 42% | 1009.5 hPa | 0 mm | - | 55 W/m² | - |
| 1777671919 | 15.56° C | 41% | 1009.4 hPa | 0 mm | - | 46 W/m² | - |
| 1777671319 | 16.11° C | 41% | 1009.4 hPa | 0 mm | - | 56 W/m² | - |
| 1777664118 | 16.67° C | 38% | 1009.6 hPa | 0 mm | - | 683 W/m² | - |
* Rain latest hour (hover to see other rain measurements)
** Current wind speed in m/s (hover to see current wind gust speed)